createdAt,value
2017-09-08T00:01:26.151Z,11.93
2017-09-08T00:03:54.399Z,7.20
2017-09-08T00:06:22.641Z,8.10
2017-09-08T00:08:50.132Z,6.20
2017-09-08T00:11:17.603Z,10.53
2017-09-08T00:13:45.860Z,7.93
2017-09-08T00:16:13.322Z,11.63
2017-09-08T00:18:40.827Z,7.40
2017-09-08T00:21:08.295Z,5.40
2017-09-08T00:23:35.797Z,12.03
2017-09-08T00:26:03.304Z,7.12
2017-09-08T00:28:30.788Z,14.70
2017-09-08T00:30:58.275Z,8.38
2017-09-08T00:33:25.752Z,13.40
2017-09-08T00:35:54.022Z,15.02
2017-09-08T00:38:22.278Z,9.45
2017-09-08T00:40:49.792Z,15.52
2017-09-08T00:43:17.264Z,7.18
2017-09-08T00:45:44.747Z,7.30
2017-09-08T00:48:12.270Z,10.98
2017-09-08T00:50:39.722Z,8.83
2017-09-08T00:53:07.191Z,7.82
2017-09-08T00:55:34.695Z,11.85
2017-09-08T00:58:02.179Z,6.60
2017-09-08T01:00:30.458Z,7.43
2017-09-08T01:02:57.944Z,6.37
2017-09-08T01:05:25.441Z,6.97
2017-09-08T01:07:52.949Z,10.35
2017-09-08T01:10:20.417Z,13.10
2017-09-08T01:12:47.927Z,9.25
2017-09-08T01:15:15.407Z,5.70
2017-09-08T01:17:43.647Z,15.05
2017-09-08T01:20:11.140Z,11.65
2017-09-08T01:22:39.378Z,10.23
2017-09-08T01:25:06.909Z,5.22
2017-09-08T01:27:34.434Z,10.05
2017-09-08T01:30:02.678Z,12.27
2017-09-08T01:32:30.159Z,9.02
2017-09-08T01:34:58.407Z,10.80
2017-09-08T01:37:25.904Z,16.17
2017-09-08T01:39:54.132Z,7.22
2017-09-08T01:42:21.614Z,8.45
2017-09-08T01:44:49.131Z,6.05
2017-09-08T01:47:16.607Z,8.07
2017-09-08T01:49:44.083Z,9.00
2017-09-08T01:52:11.567Z,8.48
2017-09-08T01:54:39.800Z,10.00
2017-09-08T01:57:07.295Z,8.30
2017-09-08T01:59:35.549Z,10.93
2017-09-08T02:02:03.058Z,11.00
2017-09-08T02:04:30.550Z,10.95
2017-09-08T02:06:58.029Z,14.33
2017-09-08T02:09:25.530Z,4.70
2017-09-08T02:11:53.761Z,9.55
2017-09-08T02:14:21.277Z,11.40
2017-09-08T02:16:48.750Z,7.10
2017-09-08T02:19:16.212Z,10.73
2017-09-08T02:21:49.603Z,10.27
2017-09-08T02:24:17.074Z,7.55
2017-09-08T02:26:44.574Z,9.95
2017-09-08T02:29:12.824Z,8.88
2017-09-08T02:31:40.310Z,5.57
2017-09-08T02:34:08.568Z,6.60
2017-09-08T02:36:36.031Z,7.00
2017-09-08T02:39:03.525Z,8.63
2017-09-08T02:41:31.000Z,8.13
2017-09-08T02:43:58.491Z,6.15
2017-09-08T02:46:25.992Z,4.82
2017-09-08T02:48:54.228Z,5.18
2017-09-08T02:51:21.719Z,6.93
2017-09-08T02:53:49.963Z,11.30
2017-09-08T02:56:17.472Z,7.37
2017-09-08T02:58:44.940Z,10.02
2017-09-08T03:01:12.403Z,10.55
2017-09-08T03:03:39.904Z,7.03
2017-09-08T03:06:08.130Z,8.98
2017-09-08T03:08:35.608Z,6.90
2017-09-08T03:11:03.095Z,8.55
2017-09-08T03:13:30.556Z,10.10
2017-09-08T03:15:58.048Z,6.85
2017-09-08T03:18:26.318Z,9.05
2017-09-08T03:20:54.638Z,14.45
2017-09-08T03:23:22.125Z,8.70
2017-09-08T03:25:49.600Z,6.28
2017-09-08T03:28:17.082Z,11.27
2017-09-08T03:30:44.564Z,12.15
2017-09-08T03:33:12.045Z,14.02
2017-09-08T03:35:39.546Z,5.15
2017-09-08T03:38:07.774Z,5.22
2017-09-08T03:40:35.242Z,7.55
2017-09-08T03:43:02.737Z,7.70
2017-09-08T03:45:30.979Z,4.82
2017-09-08T03:47:58.472Z,4.25
2017-09-08T03:50:26.709Z,12.10
2017-09-08T03:52:54.180Z,9.27
2017-09-08T03:55:21.683Z,10.48
2017-09-08T03:57:49.164Z,5.87
2017-09-08T04:00:16.646Z,6.25
2017-09-08T04:02:44.107Z,5.47
2017-09-08T04:05:11.618Z,8.63
2017-09-08T04:07:39.845Z,6.00
2017-09-08T04:10:07.299Z,5.28
2017-09-08T04:12:34.790Z,5.32
2017-09-08T04:15:03.026Z,7.97
2017-09-08T04:17:30.523Z,8.07
2017-09-08T04:19:58.752Z,5.20
2017-09-08T04:22:26.231Z,7.68
2017-09-08T04:24:53.738Z,7.57
2017-09-08T04:27:21.956Z,7.75
2017-09-08T04:29:49.439Z,7.50
2017-09-08T04:32:16.915Z,6.50
2017-09-08T04:34:45.148Z,5.18
2017-09-08T04:37:12.638Z,5.30
2017-09-08T04:39:40.875Z,5.37
2017-09-08T04:42:08.356Z,7.12
2017-09-08T04:44:35.852Z,4.30
2017-09-08T04:47:04.105Z,5.65
2017-09-08T04:49:32.375Z,7.70
2017-09-08T04:51:59.860Z,5.97
2017-09-08T04:54:28.100Z,8.38
2017-09-08T04:56:55.571Z,6.78
2017-09-08T04:59:23.090Z,6.28
2017-09-08T05:01:50.551Z,10.82
2017-09-08T05:04:18.015Z,14.40
2017-09-08T05:06:45.508Z,4.22
2017-09-08T05:09:12.963Z,5.22
2017-09-08T05:11:40.463Z,9.15
2017-09-08T05:14:07.923Z,5.05
2017-09-08T05:16:35.421Z,10.75
2017-09-08T05:19:02.899Z,8.07
2017-09-08T05:21:30.383Z,3.47
2017-09-08T05:23:58.648Z,17.48
2017-09-08T05:26:26.886Z,10.27
2017-09-08T05:28:54.375Z,9.55
2017-09-08T05:31:22.638Z,13.90
2017-09-08T05:33:50.115Z,7.35
2017-09-08T05:36:18.375Z,12.13
2017-09-08T05:38:45.829Z,15.68
2017-09-08T05:41:13.342Z,7.20
2017-09-08T05:43:40.850Z,6.00
2017-09-08T05:46:08.322Z,8.80
2017-09-08T05:48:36.575Z,6.80
2017-09-08T05:51:04.061Z,5.97
2017-09-08T05:53:31.562Z,7.18
2017-09-08T05:55:59.050Z,7.40
2017-09-08T05:58:26.491Z,6.15
2017-09-08T06:00:53.993Z,5.03
2017-09-08T06:03:22.214Z,7.90
2017-09-08T06:05:49.747Z,4.95
2017-09-08T06:08:17.224Z,11.15
2017-09-08T06:10:44.700Z,10.05
2017-09-08T06:13:12.222Z,7.75
2017-09-08T06:15:39.708Z,9.25
2017-09-08T06:18:07.207Z,5.93
2017-09-08T06:20:34.689Z,7.90
2017-09-08T06:23:02.971Z,11.03
2017-09-08T06:25:30.500Z,8.90
2017-09-08T06:27:57.971Z,12.03
2017-09-08T06:30:26.415Z,7.83
2017-09-08T06:32:55.310Z,12.60
2017-09-08T06:35:22.857Z,13.03
2017-09-08T06:37:50.355Z,17.20
2017-09-08T06:40:17.836Z,6.10
2017-09-08T06:42:46.112Z,10.00
2017-09-08T06:45:14.351Z,20.07
2017-09-08T06:47:42.203Z,9.70
2017-09-08T06:50:09.689Z,7.90
2017-09-08T06:52:37.192Z,9.53
2017-09-08T06:55:04.707Z,18.73
2017-09-08T06:57:32.800Z,11.73
2017-09-08T07:00:01.085Z,14.73
2017-09-08T07:02:29.330Z,7.77
2017-09-08T07:04:56.849Z,18.93
2017-09-08T07:07:24.348Z,14.70
2017-09-08T07:09:51.812Z,9.67
2017-09-08T07:12:19.320Z,17.70
2017-09-08T07:14:46.818Z,15.23
2017-09-08T07:17:14.321Z,9.53
2017-09-08T07:19:41.816Z,9.63
2017-09-08T07:22:09.315Z,10.60
2017-09-08T07:24:37.601Z,9.50
2017-09-08T07:27:05.830Z,14.33
2017-09-08T07:29:33.328Z,17.83
2017-09-08T07:32:00.814Z,11.23
2017-09-08T07:34:28.314Z,11.27
2017-09-08T07:36:55.835Z,13.80
2017-09-08T07:39:23.323Z,11.30
2017-09-08T07:41:50.818Z,15.57
2017-09-08T07:44:19.050Z,18.10
2017-09-08T07:46:46.549Z,11.93
2017-09-08T07:49:14.047Z,11.67
2017-09-08T07:51:41.526Z,10.37
2017-09-08T07:54:09.032Z,14.10
2017-09-08T07:56:37.263Z,15.40
2017-09-08T07:59:04.767Z,14.37
2017-09-08T08:01:33.017Z,12.23
2017-09-08T08:04:00.485Z,13.53
2017-09-08T08:06:27.998Z,18.93
2017-09-08T08:08:55.500Z,16.17
2017-09-08T08:11:23.004Z,16.60
2017-09-08T08:13:50.463Z,16.50
2017-09-08T08:16:17.932Z,11.33
2017-09-08T08:18:45.450Z,19.43
2017-09-08T08:21:12.932Z,16.20
2017-09-08T08:23:41.188Z,9.80
2017-09-08T08:26:08.660Z,17.47
2017-09-08T08:28:36.950Z,15.70
2017-09-08T08:31:05.210Z,14.90
2017-09-08T08:33:32.690Z,11.53
2017-09-08T08:36:00.195Z,15.40
2017-09-08T08:38:27.674Z,13.03
2017-09-08T08:40:55.188Z,15.80
2017-09-08T08:43:22.681Z,15.10
2017-09-08T08:45:50.159Z,11.03
2017-09-08T08:48:17.689Z,13.23
2017-09-08T08:50:45.161Z,17.63
2017-09-08T08:53:12.662Z,14.77
2017-09-08T08:55:40.906Z,10.63
2017-09-08T08:58:08.410Z,16.33
2017-09-08T09:00:35.877Z,15.30
2017-09-08T09:03:03.376Z,14.10
2017-09-08T09:05:30.847Z,9.03
2017-09-08T09:07:59.124Z,13.50
2017-09-08T09:10:26.600Z,13.17
2017-09-08T09:12:54.859Z,24.00
2017-09-08T09:15:22.323Z,17.90
2017-09-08T09:17:50.604Z,16.73
2017-09-08T09:20:18.840Z,15.63
2017-09-08T09:22:46.338Z,14.37
2017-09-08T09:25:14.589Z,16.53
2017-09-08T09:27:42.123Z,15.20
2017-09-08T09:30:09.590Z,13.43
2017-09-08T09:32:37.055Z,13.23
2017-09-08T09:35:04.590Z,12.37
2017-09-08T09:37:32.043Z,11.80
2017-09-08T09:39:59.515Z,12.10
2017-09-08T09:42:27.043Z,16.00
2017-09-08T09:44:54.519Z,11.77
2017-09-08T09:47:22.023Z,18.73
2017-09-08T09:49:49.507Z,10.03
2017-09-08T09:52:17.726Z,13.47
2017-09-08T09:54:45.219Z,14.13
2017-09-08T09:57:12.722Z,17.77
2017-09-08T09:59:40.205Z,18.13
2017-09-08T10:02:07.691Z,12.90
2017-09-08T10:04:35.184Z,23.50
2017-09-08T10:07:02.768Z,19.83
2017-09-08T10:09:30.240Z,18.73
2017-09-08T10:11:57.757Z,25.13
2017-09-08T10:14:25.224Z,17.20
2017-09-08T10:16:52.695Z,14.53
2017-09-08T10:19:20.174Z,13.83
2017-09-08T10:21:47.642Z,16.20
2017-09-08T10:24:15.143Z,15.50
2017-09-08T10:26:43.387Z,15.20
2017-09-08T10:29:10.889Z,10.93
2017-09-08T10:31:38.378Z,15.33
2017-09-08T10:34:05.830Z,17.50
2017-09-08T10:36:33.331Z,22.63
2017-09-08T10:39:00.791Z,15.93
2017-09-08T10:41:29.074Z,17.93
2017-09-08T10:43:57.314Z,22.27
2017-09-08T10:46:24.802Z,15.80
2017-09-08T10:48:52.296Z,15.27
2017-09-08T10:51:19.800Z,14.10
2017-09-08T10:53:47.321Z,18.50
2017-09-08T10:56:14.788Z,14.83
2017-09-08T10:58:42.247Z,14.93
2017-09-08T11:01:09.770Z,11.10
2017-09-08T11:03:37.998Z,19.23
2017-09-08T11:06:05.501Z,11.20
2017-09-08T11:08:33.727Z,16.30
2017-09-08T11:11:01.198Z,20.23
2017-09-08T11:13:28.729Z,12.23
2017-09-08T11:15:56.219Z,12.00
2017-09-08T11:18:24.503Z,22.23
2017-09-08T11:20:51.971Z,21.80
2017-09-08T11:23:19.472Z,18.33
2017-09-08T11:25:46.971Z,18.83
2017-09-08T11:28:14.446Z,15.10
2017-09-08T11:30:41.915Z,13.93
2017-09-08T11:33:15.824Z,15.13
2017-09-08T11:35:49.748Z,12.97
2017-09-08T11:38:18.023Z,18.33
2017-09-08T11:40:46.275Z,18.40
2017-09-08T11:43:13.811Z,22.50
2017-09-08T11:45:41.321Z,14.63
2017-09-08T11:48:09.565Z,19.03
2017-09-08T11:50:37.059Z,15.43
2017-09-08T11:53:05.328Z,19.53
2017-09-08T11:55:33.559Z,11.57
2017-09-08T11:58:01.069Z,15.10
2017-09-08T12:00:29.306Z,16.10
2017-09-08T12:02:56.787Z,18.47
2017-09-08T12:05:25.055Z,19.83
2017-09-08T12:07:52.531Z,16.00
2017-09-08T12:10:20.807Z,12.80
2017-09-08T12:12:48.319Z,15.20
2017-09-08T12:15:15.819Z,15.73
2017-09-08T12:17:43.303Z,17.63
2017-09-08T12:20:10.779Z,14.60
2017-09-08T12:22:38.280Z,15.40
2017-09-08T12:25:05.756Z,16.10
2017-09-08T12:27:33.993Z,16.07
2017-09-08T12:30:01.479Z,15.13
2017-09-08T12:32:28.946Z,12.67
2017-09-08T12:34:57.236Z,13.77
2017-09-08T12:37:25.472Z,16.10
2017-09-08T12:39:52.992Z,17.90
2017-09-08T12:42:20.489Z,12.63
2017-09-08T12:44:48.010Z,16.97
2017-09-08T12:47:15.483Z,19.50
2017-09-08T12:49:42.957Z,15.10
2017-09-08T12:52:10.446Z,13.70
2017-09-08T12:54:38.681Z,18.40
2017-09-08T12:57:06.175Z,16.40
2017-09-08T12:59:33.680Z,16.07
2017-09-08T13:02:01.232Z,18.73
2017-09-08T13:04:29.493Z,17.07
2017-09-08T13:06:57.763Z,18.80
2017-09-08T13:09:26.020Z,17.17
2017-09-08T13:11:53.521Z,16.60
2017-09-08T13:14:21.042Z,20.07
2017-09-08T13:16:48.528Z,18.57
2017-09-08T13:19:16.769Z,22.37
2017-09-08T13:21:44.263Z,17.00
2017-09-08T13:24:12.492Z,13.67
2017-09-08T13:26:39.959Z,18.47
2017-09-08T13:29:07.504Z,16.40
2017-09-08T13:31:35.024Z,17.40
2017-09-08T13:34:02.559Z,16.10
2017-09-08T13:36:30.058Z,16.20
2017-09-08T13:38:57.555Z,18.90
2017-09-08T13:41:25.012Z,17.40
2017-09-08T13:43:52.510Z,15.07
2017-09-08T13:46:20.759Z,21.43
2017-09-08T13:48:48.257Z,15.80
2017-09-08T13:51:15.742Z,16.17
2017-09-08T13:53:43.245Z,19.07
2017-09-08T13:56:11.496Z,23.50
2017-09-08T13:58:39.024Z,23.27
2017-09-08T14:01:06.736Z,19.67
2017-09-08T14:03:34.259Z,19.40
2017-09-08T14:06:01.760Z,14.83
2017-09-08T14:08:30.339Z,18.13
2017-09-08T14:10:57.856Z,19.53
2017-09-08T14:13:25.339Z,17.03
2017-09-08T14:15:52.795Z,19.13
2017-09-08T14:18:20.287Z,14.77
2017-09-08T14:20:48.520Z,16.50
2017-09-08T14:23:16.031Z,19.30
2017-09-08T14:25:44.273Z,19.07
2017-09-08T14:28:11.759Z,19.87
2017-09-08T14:30:40.010Z,22.90
2017-09-08T14:33:07.473Z,17.77
2017-09-08T14:35:35.045Z,25.23
2017-09-08T14:38:02.531Z,26.13
2017-09-08T14:40:30.051Z,15.33
2017-09-08T14:42:57.517Z,18.30
2017-09-08T14:45:25.016Z,20.00
2017-09-08T14:47:54.258Z,22.47
2017-09-08T14:50:21.750Z,15.73
2017-09-08T14:52:49.988Z,22.40
2017-09-08T14:55:17.507Z,16.70
2017-09-08T14:57:44.986Z,26.20
2017-09-08T15:00:12.462Z,23.90
2017-09-08T15:02:39.951Z,23.97
2017-09-08T15:05:08.218Z,19.87
2017-09-08T15:07:35.711Z,16.00
2017-09-08T15:10:03.991Z,25.63
2017-09-08T15:12:31.472Z,22.43
2017-09-08T15:14:58.980Z,17.57
2017-09-08T15:17:26.520Z,16.73
2017-09-08T15:19:54.057Z,16.90
2017-09-08T15:22:21.499Z,23.63
2017-09-08T15:24:48.997Z,23.77
2017-09-08T15:27:16.476Z,32.33
2017-09-08T15:29:44.740Z,19.70
2017-09-08T15:32:12.267Z,22.50
2017-09-08T15:34:39.752Z,16.50
2017-09-08T15:37:07.264Z,24.93
2017-09-08T15:39:34.748Z,18.07
2017-09-08T15:42:02.228Z,21.97
2017-09-08T15:44:29.714Z,17.27
2017-09-08T15:46:57.992Z,15.27
2017-09-08T15:49:26.300Z,18.53
2017-09-08T15:51:53.784Z,24.40
2017-09-08T15:54:21.251Z,17.40
2017-09-08T15:56:48.779Z,18.07
2017-09-08T15:59:16.240Z,20.23
2017-09-08T16:01:43.723Z,22.63
2017-09-08T16:04:11.241Z,16.00
2017-09-08T16:06:38.708Z,22.63
2017-09-08T16:09:06.199Z,19.57
2017-09-08T16:11:34.270Z,18.67
2017-09-08T16:14:01.779Z,21.83
2017-09-08T16:16:30.020Z,20.40
2017-09-08T16:18:57.587Z,25.10
2017-09-08T16:21:25.117Z,24.93
2017-09-08T16:23:53.170Z,21.40
2017-09-08T16:26:20.660Z,19.67
2017-09-08T16:28:48.143Z,20.10
2017-09-08T16:31:15.700Z,23.93
2017-09-08T16:33:43.215Z,16.07
2017-09-08T16:36:10.764Z,19.63
2017-09-08T16:38:38.270Z,18.03
2017-09-08T16:41:05.792Z,17.60
2017-09-08T16:43:33.281Z,19.10
2017-09-08T16:46:00.813Z,19.27
2017-09-08T16:48:28.297Z,15.13
2017-09-08T16:50:55.760Z,17.40
2017-09-08T16:53:23.261Z,16.03
2017-09-08T16:55:50.724Z,24.13
2017-09-08T16:58:18.253Z,16.90
2017-09-08T17:00:46.510Z,22.83
2017-09-08T17:03:13.995Z,17.60
2017-09-08T17:05:42.234Z,15.43
2017-09-08T17:08:09.744Z,27.00
2017-09-08T17:10:37.256Z,22.90
2017-09-08T17:13:04.756Z,20.30
2017-09-08T17:15:33.046Z,16.97
2017-09-08T17:18:00.507Z,19.13
2017-09-08T17:20:28.011Z,19.07
2017-09-08T17:22:55.499Z,18.63
2017-09-08T17:25:23.751Z,22.93
2017-09-08T17:27:51.264Z,16.00
2017-09-08T17:30:18.752Z,17.07
2017-09-08T17:32:46.270Z,21.10
2017-09-08T17:35:13.748Z,27.53
2017-09-08T17:37:41.255Z,21.77
2017-09-08T17:40:08.741Z,26.27
2017-09-08T17:42:36.977Z,27.07
2017-09-08T17:45:04.487Z,22.43
2017-09-08T17:47:31.990Z,19.97
2017-09-08T17:49:59.748Z,17.73
2017-09-08T17:52:27.235Z,13.83
2017-09-08T17:54:55.427Z,18.17
2017-09-08T17:57:23.680Z,21.23
2017-09-08T17:59:51.160Z,21.10
2017-09-08T18:02:19.046Z,18.70
2017-09-08T18:04:47.281Z,18.30
2017-09-08T18:07:14.747Z,13.10
2017-09-08T18:09:42.276Z,18.17
2017-09-08T18:12:09.792Z,24.60
2017-09-08T18:14:37.282Z,23.80
2017-09-08T18:17:04.787Z,29.47
2017-09-08T18:19:32.248Z,16.17
2017-09-08T18:21:59.728Z,20.83
2017-09-08T18:24:28.011Z,20.23
2017-09-08T18:26:55.523Z,24.60
2017-09-08T18:29:22.976Z,17.17
2017-09-08T18:31:50.507Z,21.10
2017-09-08T18:34:18.000Z,20.27
2017-09-08T18:36:45.511Z,17.90
2017-09-08T18:39:13.013Z,23.23
2017-09-08T18:41:40.571Z,19.37
2017-09-08T18:44:08.046Z,19.03
2017-09-08T18:46:35.540Z,18.13
2017-09-08T18:49:03.058Z,20.60
2017-09-08T18:51:30.546Z,21.00
2017-09-08T18:53:58.820Z,14.23
2017-09-08T18:56:27.070Z,16.43
2017-09-08T18:58:54.593Z,16.03
2017-09-08T19:01:22.086Z,14.53
2017-09-08T19:03:49.565Z,15.87
2017-09-08T19:06:18.903Z,27.30
2017-09-08T19:08:46.436Z,21.43
2017-09-08T19:11:14.695Z,24.80
2017-09-08T19:13:42.183Z,19.97
2017-09-08T19:16:09.698Z,19.47
2017-09-08T19:18:37.208Z,25.40
2017-09-08T19:21:04.740Z,17.97
2017-09-08T19:23:32.983Z,21.13
2017-09-08T19:26:00.542Z,21.10
2017-09-08T19:28:28.034Z,18.00
2017-09-08T19:30:56.294Z,19.93
2017-09-08T19:33:23.796Z,18.00
2017-09-08T19:35:51.275Z,18.27
2017-09-08T19:38:18.809Z,17.43
2017-09-08T19:40:46.309Z,18.80
2017-09-08T19:43:13.804Z,13.30
2017-09-08T19:45:41.356Z,13.70
2017-09-08T19:48:08.822Z,16.40
2017-09-08T19:50:37.088Z,22.40
2017-09-08T19:53:04.610Z,15.40
2017-09-08T19:55:32.111Z,19.80
2017-09-08T19:57:59.599Z,20.97
2017-09-08T20:00:27.095Z,16.03
2017-09-08T20:02:54.611Z,14.97
2017-09-08T20:05:22.847Z,17.73
2017-09-08T20:07:50.351Z,14.63
2017-09-08T20:10:18.646Z,14.20
2017-09-08T20:12:46.139Z,19.90
2017-09-08T20:15:13.670Z,16.70
2017-09-08T20:17:41.150Z,23.83
2017-09-08T20:20:08.643Z,19.17
2017-09-08T20:22:36.923Z,17.20
2017-09-08T20:25:04.393Z,20.17
2017-09-08T20:27:31.902Z,26.93
2017-09-08T20:29:59.408Z,18.60
2017-09-08T20:32:27.693Z,18.30
2017-09-08T20:34:55.175Z,17.27
2017-09-08T20:37:22.639Z,17.90
2017-09-08T20:39:50.156Z,13.70
2017-09-08T20:42:18.407Z,14.57
2017-09-08T20:44:45.902Z,16.30
2017-09-08T20:47:13.380Z,14.47
2017-09-08T20:49:40.884Z,17.27
2017-09-08T20:52:08.388Z,11.60
2017-09-08T20:54:35.884Z,17.03
2017-09-08T20:57:03.381Z,15.87
2017-09-08T20:59:30.890Z,16.53
2017-09-08T21:01:58.389Z,14.07
2017-09-08T21:04:26.643Z,18.03
2017-09-08T21:06:54.160Z,16.40
2017-09-08T21:09:21.628Z,21.20
2017-09-08T21:11:49.187Z,20.90
2017-09-08T21:14:16.675Z,22.97
2017-09-08T21:16:44.163Z,15.93
2017-09-08T21:19:12.449Z,18.53
2017-09-08T21:21:40.697Z,18.20
2017-09-08T21:24:08.199Z,17.47
2017-09-08T21:26:35.700Z,16.23
2017-09-08T21:29:03.202Z,19.90
2017-09-08T21:31:31.428Z,16.20
2017-09-08T21:33:58.930Z,18.47
2017-09-08T21:36:26.408Z,15.70
2017-09-08T21:38:53.868Z,25.20
2017-09-08T21:41:21.361Z,17.83
2017-09-08T21:43:48.847Z,16.13
2017-09-08T21:46:16.351Z,16.70
2017-09-08T21:48:43.835Z,18.50
2017-09-08T21:51:11.307Z,19.40
2017-09-08T21:53:38.791Z,16.27
2017-09-08T21:56:07.035Z,19.73
2017-09-08T21:58:34.543Z,23.53
2017-09-08T22:01:02.012Z,22.97
2017-09-08T22:03:29.519Z,13.90
2017-09-08T22:05:57.001Z,17.17
2017-09-08T22:08:24.489Z,20.13
2017-09-08T22:10:51.983Z,20.37
2017-09-08T22:13:19.454Z,13.47
2017-09-08T22:15:46.967Z,15.60
2017-09-08T22:18:14.470Z,22.23
2017-09-08T22:20:41.940Z,14.17
2017-09-08T22:23:09.439Z,18.40
2017-09-08T22:25:36.934Z,17.23
2017-09-08T22:28:04.396Z,15.90
2017-09-08T22:30:31.888Z,15.17
2017-09-08T22:33:00.118Z,18.17
2017-09-08T22:35:27.619Z,18.60
2017-09-08T22:37:55.095Z,20.17
2017-09-08T22:40:23.334Z,18.80
2017-09-08T22:42:50.839Z,15.83
2017-09-08T22:45:18.308Z,23.40
2017-09-08T22:47:45.791Z,18.40
2017-09-08T22:50:13.295Z,16.97
2017-09-08T22:52:41.561Z,14.73
2017-09-08T22:55:09.090Z,18.70
2017-09-08T22:57:36.574Z,19.33
2017-09-08T23:00:04.092Z,16.10
2017-09-08T23:02:31.589Z,15.07
2017-09-08T23:04:59.080Z,20.30
2017-09-08T23:07:26.580Z,19.30
2017-09-08T23:09:54.093Z,17.50
2017-09-08T23:12:22.381Z,17.50
2017-09-08T23:14:49.850Z,14.90
2017-09-08T23:17:17.346Z,19.47
2017-09-08T23:19:44.820Z,16.47
2017-09-08T23:22:12.327Z,14.73
2017-09-08T23:24:39.820Z,21.13
2017-09-08T23:27:07.319Z,22.43
2017-09-08T23:29:35.559Z,13.63
2017-09-08T23:32:03.036Z,13.97
2017-09-08T23:34:30.553Z,15.90
2017-09-08T23:36:58.038Z,11.90
2017-09-08T23:39:25.506Z,17.67
2017-09-08T23:41:52.996Z,16.60
2017-09-08T23:44:21.264Z,13.77
2017-09-08T23:46:49.535Z,18.80
2017-09-08T23:49:17.801Z,15.07
2017-09-08T23:51:45.280Z,17.37
2017-09-08T23:54:13.559Z,16.00
2017-09-08T23:56:41.787Z,14.33
2017-09-08T23:59:09.299Z,19.13
